Time;durP1;ratioP1;P1;durP2;ratioP2;P2;SDS_P1;SDS_P2;PMS_P1;PMS_P2;Temp;Humidity;BMP_temperature;BMP_pressure;BME280_temperature;BME280_humidity;BME280_pressure;Samples;Min_cycle;Max_cycle;Signal;HPM_P1;HPM_P2
2022/10/07 00:04:38;;;;;;;20.87;4.70;;;15.70;61.60;;;;;;4994128;28;20214;-91
2022/10/07 00:07:33;;;;;;;16.03;4.50;;;15.70;62.30;;;;;;4982951;28;20265;-94
2022/10/07 00:10:02;;;;;;;14.60;4.33;;;15.70;62.40;;;;;;4989954;28;20312;-93
2022/10/07 00:12:32;;;;;;;14.47;3.67;;;15.70;61.70;;;;;;5001484;28;20317;-93
2022/10/07 00:18:04;;;;;;;12.83;3.90;;;15.60;62.20;;;;;;4940870;29;20279;-91
2022/10/07 00:20:37;;;;;;;12.13;3.40;;;15.60;62.00;;;;;;4940136;29;20208;-91
2022/10/07 00:23:08;;;;;;;10.93;3.17;;;15.60;62.40;;;;;;4938299;29;20680;-92
2022/10/07 00:25:36;;;;;;;13.97;4.03;;;15.60;62.40;;;;;;4984727;28;20207;-92
2022/10/07 00:28:04;;;;;;;20.30;5.17;;;15.60;62.30;;;;;;4997863;28;20212;-93
2022/10/07 00:30:38;;;;;;;20.50;4.83;;;15.50;62.10;;;;;;5012369;28;20213;-94
2022/10/07 00:33:31;;;;;;;13.23;3.23;;;15.50;62.80;;;;;;5023281;28;20240;-93
2022/10/07 00:36:00;;;;;;;15.30;4.17;;;15.50;62.50;;;;;;5000013;28;20675;-93
2022/10/07 00:38:30;;;;;;;14.47;4.07;;;15.40;62.50;;;;;;5009613;28;20288;-93
2022/10/07 00:40:58;;;;;;;17.30;4.23;;;15.40;62.60;;;;;;5000990;28;20234;-93
2022/10/07 00:43:28;;;;;;;12.30;3.83;;;15.40;62.60;;;;;;5017356;23;20319;-93
2022/10/07 00:48:44;;;;;;;16.37;4.60;;;15.40;63.00;;;;;;5010979;28;20204;-94
2022/10/07 00:51:16;;;;;;;10.57;3.63;;;15.30;62.90;;;;;;5015653;28;20239;-93
2022/10/07 00:54:19;;;;;;;14.27;4.43;;;15.30;63.20;;;;;;5015804;28;20681;-93
2022/10/07 00:56:49;;;;;;;16.43;4.17;;;15.30;63.60;;;;;;5007557;28;20233;-94
2022/10/07 00:59:21;;;;;;;16.63;3.63;;;15.30;62.90;;;;;;4997986;28;20607;-93
2022/10/07 01:01:51;;;;;;;14.07;3.30;;;15.30;63.20;;;;;;4997034;28;20650;-93
2022/10/07 01:04:22;;;;;;;16.07;3.73;;;15.30;63.10;;;;;;4996608;28;20234;-93
2022/10/07 01:07:14;;;;;;;12.37;3.67;;;15.20;62.90;;;;;;5004297;28;20206;-93
2022/10/07 01:09:45;;;;;;;14.27;3.67;;;15.20;63.40;;;;;;4972229;28;20220;-95
2022/10/07 01:12:21;;;;;;;17.87;3.90;;;15.20;62.90;;;;;;5005145;28;20227;-94
2022/10/07 01:15:00;;;;;;;14.17;4.03;;;15.20;63.50;;;;;;4996021;28;20226;-91
2022/10/07 01:17:49;;;;;;;10.83;3.23;;;15.20;63.50;;;;;;5005901;28;20215;-92
2022/10/07 01:20:30;;;;;;;15.63;3.77;;;15.20;63.90;;;;;;5014939;28;20278;-93
2022/10/07 01:23:23;;;;;;;13.97;4.07;;;15.10;63.70;;;;;;5002267;28;20237;-92
2022/10/07 01:26:23;;;;;;;16.60;3.77;;;15.10;64.00;;;;;;5001510;28;20282;-92
2022/10/07 01:28:56;;;;;;;21.67;4.43;;;15.10;64.10;;;;;;5011753;28;20606;-93
2022/10/07 01:31:28;;;;;;;15.43;4.40;;;15.00;63.20;;;;;;5013257;28;20201;-93
2022/10/07 01:33:56;;;;;;;19.47;5.77;;;15.00;63.50;;;;;;5020068;28;20267;-92
2022/10/07 01:36:25;;;;;;;18.03;4.77;;;15.00;63.30;;;;;;5014225;28;20190;-92
2022/10/07 01:38:58;;;;;;;21.47;4.37;;;15.00;63.50;;;;;;5013977;28;20193;-92
2022/10/07 01:41:32;;;;;;;15.20;4.30;;;14.90;63.50;;;;;;4995592;28;20705;-93
2022/10/07 01:44:01;;;;;;;14.10;4.60;;;14.90;63.90;;;;;;4998933;28;20212;-91
2022/10/07 01:46:30;;;;;;;15.40;4.20;;;14.80;63.40;;;;;;5014945;28;20210;-92
2022/10/07 01:48:57;;;;;;;15.20;4.33;;;14.80;63.60;;;;;;5012086;28;20968;-91
2022/10/07 01:51:31;;;;;;;9.77;3.60;;;14.80;63.70;;;;;;4994157;28;20244;-93
2022/10/07 01:59:55;;;;;;;17.13;3.80;;;14.70;63.80;;;;;;4996648;28;20225;-92
2022/10/07 02:05:53;;;;;;;14.80;3.47;;;14.60;64.80;;;;;;5004239;23;20241;-93
2022/10/07 02:11:23;;;;;;;15.23;3.60;;;14.60;65.30;;;;;;4979339;28;20246;-93
2022/10/07 02:14:11;;;;;;;10.13;3.50;;;14.50;64.40;;;;;;4988714;28;20344;-94
2022/10/07 02:17:01;;;;;;;14.87;4.13;;;14.50;65.20;;;;;;5000685;28;20222;-92
2022/10/07 02:19:42;;;;;;;14.87;3.93;;;14.50;65.20;;;;;;4998690;28;20202;-91
2022/10/07 02:22:13;;;;;;;14.70;4.77;;;14.40;64.90;;;;;;4996922;28;20925;-92
2022/10/07 02:24:41;;;;;;;15.53;3.73;;;14.40;65.50;;;;;;4994959;28;20621;-93
2022/10/07 02:27:19;;;;;;;13.47;4.40;;;14.40;64.90;;;;;;4996918;28;20209;-93
2022/10/07 02:29:48;;;;;;;12.33;4.37;;;14.40;65.40;;;;;;4994368;28;20205;-92
2022/10/07 02:32:24;;;;;;;16.23;5.10;;;14.40;65.10;;;;;;4981700;28;20280;-93
2022/10/07 02:34:57;;;;;;;12.47;3.93;;;14.40;65.40;;;;;;4977631;28;20679;-93
2022/10/07 02:37:32;;;;;;;9.40;3.63;;;14.40;65.30;;;;;;4991032;28;20206;-93
2022/10/07 02:42:49;;;;;;;16.20;3.77;;;14.40;65.20;;;;;;4993302;28;20220;-95
2022/10/07 02:45:22;;;;;;;13.33;3.57;;;14.40;65.40;;;;;;5001339;28;20211;-94
2022/10/07 02:48:17;;;;;;;17.27;4.13;;;14.40;65.40;;;;;;5000257;28;20270;-94
2022/10/07 02:54:25;;;;;;;26.03;4.17;;;14.30;65.90;;;;;;4983134;28;20213;-93
2022/10/07 02:56:58;;;;;;;12.27;3.50;;;14.40;65.20;;;;;;4983363;28;20578;-93
2022/10/07 02:59:29;;;;;;;13.27;4.03;;;14.30;65.50;;;;;;5005492;28;20213;-93
2022/10/07 03:02:20;;;;;;;12.20;3.57;;;14.40;65.70;;;;;;4994518;28;20293;-92
2022/10/07 03:04:50;;;;;;;12.83;3.20;;;14.30;65.80;;;;;;4992667;28;20228;-93
2022/10/07 03:07:17;;;;;;;13.27;4.00;;;14.30;65.30;;;;;;4997640;28;20581;-92
2022/10/07 03:09:55;;;;;;;13.83;3.07;;;14.30;65.30;;;;;;5001476;28;20225;-93
2022/10/07 03:12:29;;;;;;;10.33;3.40;;;14.30;66.00;;;;;;4984964;28;20222;-94
2022/10/07 03:17:44;;;;;;;14.57;3.30;;;14.30;66.00;;;;;;4996737;28;20212;-92
2022/10/07 03:20:15;;;;;;;16.63;3.87;;;14.30;65.90;;;;;;5001496;28;20328;-93
2022/10/07 03:22:47;;;;;;;11.73;3.40;;;14.30;66.10;;;;;;5003733;28;20217;-93
2022/10/07 03:25:20;;;;;;;15.43;4.33;;;14.30;66.20;;;;;;5008716;28;20201;-92
2022/10/07 03:27:59;;;;;;;14.33;3.30;;;14.30;66.40;;;;;;5000789;28;20654;-95
2022/10/07 03:30:34;;;;;;;17.00;4.83;;;14.30;66.80;;;;;;4997125;28;20203;-92
2022/10/07 03:33:07;;;;;;;10.13;2.67;;;14.30;66.70;;;;;;5006799;28;20219;-93
2022/10/07 03:35:47;;;;;;;18.03;5.03;;;14.30;66.30;;;;;;5081299;23;20281;-93
2022/10/07 03:38:15;;;;;;;15.57;4.03;;;14.30;66.40;;;;;;5000215;28;20179;-93
2022/10/07 03:40:45;;;;;;;14.20;3.60;;;14.30;66.40;;;;;;5001532;28;20264;-91
2022/10/07 03:43:13;;;;;;;18.93;4.43;;;14.30;66.70;;;;;;5000051;28;20207;-91
2022/10/07 03:46:01;;;;;;;11.93;3.47;;;14.30;66.70;;;;;;4972396;28;20642;-93
2022/10/07 03:48:29;;;;;;;17.10;4.40;;;14.30;67.40;;;;;;4971144;28;20254;-91
2022/10/07 03:50:58;;;;;;;14.20;4.00;;;14.30;66.60;;;;;;4992042;28;20206;-91
2022/10/07 03:53:28;;;;;;;21.87;5.73;;;14.20;66.80;;;;;;4990976;28;20231;-92
2022/10/07 03:58:44;;;;;;;11.40;3.27;;;14.30;67.30;;;;;;4998317;23;20237;-92
2022/10/07 04:01:27;;;;;;;14.60;4.30;;;14.30;67.10;;;;;;4996649;28;20701;-88
2022/10/07 04:03:59;;;;;;;12.67;4.90;;;14.30;67.40;;;;;;5002972;28;20186;-92
2022/10/07 04:06:29;;;;;;;17.27;4.67;;;14.30;67.60;;;;;;5006540;28;20237;-93
2022/10/07 04:08:58;;;;;;;18.47;4.47;;;14.30;67.60;;;;;;5004485;28;20210;-94
2022/10/07 04:11:34;;;;;;;22.17;5.73;;;14.30;67.50;;;;;;5019059;28;20205;-93
2022/10/07 04:14:01;;;;;;;17.03;4.03;;;14.30;68.10;;;;;;5004531;28;20190;-92
2022/10/07 04:16:28;;;;;;;17.53;5.50;;;14.30;67.80;;;;;;5000439;28;20221;-92
2022/10/07 04:18:57;;;;;;;13.10;4.40;;;14.40;68.10;;;;;;4996548;28;20218;-92
2022/10/07 04:21:32;;;;;;;9.67;3.90;;;14.30;68.10;;;;;;4997595;28;20226;-91
2022/10/07 04:24:01;;;;;;;16.03;4.40;;;14.30;68.50;;;;;;4987616;28;20209;-93
2022/10/07 04:29:30;;;;;;;10.63;3.33;;;14.40;68.50;;;;;;4994290;28;20241;-91
2022/10/07 04:31:58;;;;;;;14.27;3.63;;;14.40;68.70;;;;;;4995778;28;21004;-91
2022/10/07 04:34:28;;;;;;;13.13;4.03;;;14.40;68.40;;;;;;4995993;28;20236;-92
2022/10/07 04:37:00;;;;;;;14.27;3.40;;;14.40;68.40;;;;;;4995311;28;20657;-91
2022/10/07 04:39:30;;;;;;;17.70;4.13;;;14.50;68.70;;;;;;4994521;28;20296;-90
2022/10/07 04:42:06;;;;;;;13.50;3.70;;;14.50;68.50;;;;;;4999650;28;20268;-92
2022/10/07 04:44:33;;;;;;;13.87;4.07;;;14.50;68.90;;;;;;4996655;28;20205;-90
2022/10/07 04:47:07;;;;;;;17.10;4.63;;;14.50;68.40;;;;;;4997541;28;20230;-90
2022/10/07 04:49:36;;;;;;;16.10;4.87;;;14.50;69.00;;;;;;5002122;28;20209;-91
2022/10/07 04:52:18;;;;;;;9.97;3.23;;;14.50;68.60;;;;;;4997722;28;20699;-93
2022/10/07 04:54:47;;;;;;;14.07;4.00;;;14.60;69.00;;;;;;4997274;28;20230;-93
2022/10/07 04:57:35;;;;;;;18.20;4.63;;;14.60;68.70;;;;;;4996000;28;20269;-94
2022/10/07 05:00:31;;;;;;;13.13;4.30;;;14.60;69.30;;;;;;4987952;28;20301;-92
2022/10/07 05:06:41;;;;;;;15.37;4.50;;;14.60;68.90;;;;;;4976305;28;20686;-91
2022/10/07 05:09:11;;;;;;;16.10;4.83;;;14.60;68.30;;;;;;5003959;28;20233;-91
2022/10/07 05:14:24;;;;;;;16.27;4.13;;;14.60;68.60;;;;;;4997905;28;20210;-91
2022/10/07 05:16:58;;;;;;;12.73;3.63;;;14.70;68.60;;;;;;4995655;28;20238;-94
2022/10/07 05:19:25;;;;;;;13.87;4.27;;;14.70;69.00;;;;;;4992759;28;20233;-92
2022/10/07 05:21:54;;;;;;;19.87;5.17;;;14.70;68.70;;;;;;4985689;28;20846;-93
2022/10/07 05:24:24;;;;;;;19.87;4.20;;;14.70;68.90;;;;;;4995119;28;20210;-91
2022/10/07 05:26:53;;;;;;;15.07;3.70;;;14.70;69.00;;;;;;4976035;28;20605;-91
2022/10/07 05:29:59;;;;;;;13.73;3.87;;;14.70;68.70;;;;;;4980498;28;20212;-93
2022/10/07 05:32:26;;;;;;;15.43;4.43;;;14.70;69.50;;;;;;4999628;28;20245;-90
2022/10/07 05:35:00;;;;;;;15.97;4.10;;;14.70;68.70;;;;;;5008977;28;20224;-91
2022/10/07 05:37:33;;;;;;;17.33;4.00;;;14.70;69.00;;;;;;4999933;28;20209;-91
2022/10/07 05:40:10;;;;;;;16.03;3.90;;;14.70;69.10;;;;;;4998353;28;20622;-91
2022/10/07 05:42:38;;;;;;;16.57;3.97;;;14.70;69.20;;;;;;4989752;28;20226;-90
2022/10/07 05:45:12;;;;;;;13.63;4.27;;;14.70;68.90;;;;;;4980737;28;20214;-91
2022/10/07 05:47:41;;;;;;;14.13;4.33;;;14.70;69.10;;;;;;4990618;28;20217;-90
2022/10/07 05:50:10;;;;;;;14.27;4.17;;;14.70;68.80;;;;;;4996213;28;20289;-90
2022/10/07 05:52:38;;;;;;;14.27;4.40;;;14.70;69.00;;;;;;4978083;28;20304;-90
2022/10/07 05:55:10;;;;;;;13.20;3.53;;;14.80;69.10;;;;;;4989365;28;20203;-89
2022/10/07 05:57:46;;;;;;;15.27;3.93;;;14.80;69.10;;;;;;5000482;28;20240;-90
2022/10/07 06:00:40;;;;;;;15.00;4.67;;;14.80;69.30;;;;;;5006687;28;20265;-92
2022/10/07 06:03:08;;;;;;;17.97;4.50;;;14.80;69.50;;;;;;4981260;28;20222;-93
2022/10/07 06:05:37;;;;;;;13.47;4.27;;;14.90;68.90;;;;;;4999290;28;20210;-90
2022/10/07 06:08:04;;;;;;;15.67;4.07;;;14.90;68.90;;;;;;4994882;28;20191;-88
2022/10/07 06:16:06;;;;;;;20.00;5.53;;;14.90;69.20;;;;;;4982475;28;20228;-91
2022/10/07 06:18:35;;;;;;;16.53;4.60;;;14.90;69.10;;;;;;4990503;28;20304;-94
2022/10/07 06:21:03;;;;;;;20.87;5.23;;;14.90;69.30;;;;;;4988554;28;20289;-93
2022/10/07 06:23:54;;;;;;;13.40;4.13;;;14.90;69.20;;;;;;4972154;28;20225;-90
2022/10/07 06:26:24;;;;;;;13.77;3.87;;;15.00;69.80;;;;;;4972465;28;20675;-92
2022/10/07 06:32:07;;;;;;;11.37;3.57;;;15.00;70.00;;;;;;5053344;23;20288;-90
2022/10/07 06:34:48;;;;;;;18.43;4.30;;;15.00;69.10;;;;;;5005507;28;20217;-91
2022/10/07 06:37:34;;;;;;;15.13;4.50;;;15.00;68.90;;;;;;5009190;28;20318;-90
2022/10/07 06:40:01;;;;;;;15.50;4.17;;;15.00;69.10;;;;;;5009084;28;20614;-93
2022/10/07 06:42:33;;;;;;;15.13;4.03;;;15.00;68.80;;;;;;5011014;28;20205;-93
2022/10/07 06:45:18;;;;;;;15.93;4.30;;;15.00;69.00;;;;;;5012164;28;20205;-93
2022/10/07 06:47:48;;;;;;;14.90;3.93;;;15.00;68.80;;;;;;5010351;28;20209;-89
2022/10/07 06:50:28;;;;;;;14.07;4.90;;;15.00;68.90;;;;;;5010966;28;20669;-93
2022/10/07 06:52:56;;;;;;;14.90;4.33;;;15.00;69.00;;;;;;5008668;28;20304;-89
2022/10/07 06:55:45;;;;;;;21.40;4.70;;;15.00;68.80;;;;;;5009932;28;20202;-91
2022/10/07 06:58:20;;;;;;;18.30;5.40;;;15.00;69.20;;;;;;4990077;28;20208;-90
2022/10/07 07:00:48;;;;;;;14.87;4.67;;;15.00;69.00;;;;;;4982443;28;20211;-89
2022/10/07 07:03:22;;;;;;;17.97;4.67;;;15.00;68.60;;;;;;4990102;28;20206;-92
2022/10/07 07:05:50;;;;;;;24.00;4.40;;;15.00;68.80;;;;;;4990030;28;20233;-90
2022/10/07 07:08:18;;;;;;;18.77;4.77;;;15.00;68.80;;;;;;4990599;28;20194;-90
2022/10/07 07:10:47;;;;;;;12.47;3.93;;;15.00;68.80;;;;;;4990715;28;20232;-90
2022/10/07 07:13:22;;;;;;;23.80;4.47;;;14.90;68.70;;;;;;4990766;28;20226;-90
2022/10/07 07:15:56;;;;;;;12.07;4.10;;;15.00;69.00;;;;;;4990072;28;20388;-93
2022/10/07 07:21:06;;;;;;;15.23;4.27;;;15.00;69.00;;;;;;4959462;28;20218;-94
2022/10/07 07:23:33;;;;;;;11.87;3.53;;;15.00;68.90;;;;;;4990052;28;20599;-90
2022/10/07 07:26:01;;;;;;;16.17;4.10;;;15.00;69.00;;;;;;4990350;28;20226;-93
2022/10/07 07:28:32;;;;;;;20.23;4.70;;;15.00;69.30;;;;;;4990738;28;20221;-92
2022/10/07 07:31:08;;;;;;;14.70;4.00;;;15.00;69.40;;;;;;4980842;28;20303;-91
2022/10/07 07:33:37;;;;;;;15.13;3.33;;;15.00;69.40;;;;;;4986366;28;20878;-90
2022/10/07 07:36:15;;;;;;;17.40;4.93;;;15.00;69.30;;;;;;4993553;28;20293;-90
2022/10/07 07:38:42;;;;;;;15.67;4.37;;;15.10;69.50;;;;;;4994653;28;20205;-88
2022/10/07 07:41:10;;;;;;;17.20;4.70;;;15.10;69.20;;;;;;4995660;28;20222;-89
2022/10/07 07:43:38;;;;;;;14.77;4.60;;;15.10;69.20;;;;;;4992553;28;20210;-92
2022/10/07 07:46:07;;;;;;;13.37;3.93;;;15.10;69.30;;;;;;4991360;28;20298;-94
2022/10/07 07:48:35;;;;;;;10.67;3.43;;;15.20;69.50;;;;;;4994455;28;20237;-96
2022/10/07 07:51:05;;;;;;;11.93;3.47;;;15.20;69.40;;;;;;4996282;28;20311;-92
2022/10/07 07:56:13;;;;;;;44.40;12.90;;;15.30;69.50;;;;;;5009284;23;20237;-88
2022/10/07 07:59:03;;;;;;;;;;;;;;;;;;;;;
2022/10/07 08:01:34;;;;;;;14.13;3.43;;;15.40;69.80;;;;;;4998697;28;20197;-90
2022/10/07 08:04:21;;;;;;;13.87;3.63;;;15.50;70.10;;;;;;4996804;28;20298;-92
2022/10/07 08:06:49;;;;;;;14.93;3.17;;;15.50;70.40;;;;;;4995885;28;20211;-94
2022/10/07 08:09:33;;;;;;;18.63;4.57;;;15.60;70.30;;;;;;4994461;28;20234;-93
2022/10/07 08:12:04;;;;;;;12.53;4.07;;;15.70;70.40;;;;;;4994980;28;20207;-91
2022/10/07 08:14:31;;;;;;;13.93;4.13;;;15.80;70.20;;;;;;4992923;28;20570;-93
2022/10/07 08:17:01;;;;;;;15.10;3.87;;;16.00;70.00;;;;;;4993081;28;20868;-91
2022/10/07 08:19:29;;;;;;;12.90;3.43;;;16.10;70.10;;;;;;4991712;28;20288;-92
2022/10/07 08:22:00;;;;;;;13.77;4.57;;;16.20;69.70;;;;;;4993032;28;20722;-92
2022/10/07 08:24:27;;;;;;;11.13;3.60;;;16.30;69.30;;;;;;4993242;28;20199;-89
2022/10/07 08:27:05;;;;;;;11.67;3.83;;;16.40;69.40;;;;;;4994503;28;20292;-93
2022/10/07 08:29:32;;;;;;;12.20;4.23;;;16.50;69.30;;;;;;4992269;28;20204;-89
2022/10/07 08:32:02;;;;;;;14.23;4.37;;;16.50;69.70;;;;;;4993495;28;20198;-88
2022/10/07 08:34:30;;;;;;;16.90;4.67;;;16.60;68.90;;;;;;4990532;28;20196;-89
2022/10/07 08:36:58;;;;;;;18.20;4.93;;;16.60;68.50;;;;;;4991699;28;20226;-92
2022/10/07 08:39:28;;;;;;;13.97;4.10;;;16.70;68.70;;;;;;4991150;28;20207;-92
2022/10/07 08:42:07;;;;;;;13.13;3.90;;;16.70;68.50;;;;;;4992407;28;20220;-91
2022/10/07 08:44:38;;;;;;;17.93;4.80;;;16.80;68.60;;;;;;4992009;28;20229;-93
2022/10/07 08:47:16;;;;;;;15.47;5.40;;;16.80;68.40;;;;;;4992910;28;20227;-93
2022/10/07 08:49:56;;;;;;;9.80;3.27;;;16.90;68.60;;;;;;4990704;28;20262;-89
2022/10/07 08:52:43;;;;;;;16.50;4.33;;;16.90;68.30;;;;;;4991441;28;20253;-93
2022/10/07 08:55:18;;;;;;;17.33;3.93;;;17.00;68.50;;;;;;4989509;28;20632;-89
2022/10/07 08:58:03;;;;;;;14.37;4.90;;;17.00;68.40;;;;;;4992403;28;20230;-91
2022/10/07 09:00:38;;;;;;;22.50;5.20;;;17.10;68.60;;;;;;5006013;23;20227;-90
2022/10/07 09:03:19;;;;;;;15.30;3.80;;;17.10;69.40;;;;;;5012728;28;20690;-91
2022/10/07 09:05:49;;;;;;;18.27;5.07;;;17.20;68.90;;;;;;5011594;28;20235;-89
2022/10/07 09:08:22;;;;;;;11.77;3.30;;;17.30;69.10;;;;;;5012627;28;20276;-92
2022/10/07 09:10:52;;;;;;;8.77;3.27;;;17.40;69.40;;;;;;5016400;28;20184;-92
2022/10/07 09:14:07;;;;;;;13.10;4.10;;;17.60;69.30;;;;;;5011368;28;20241;-90
2022/10/07 09:16:42;;;;;;;13.40;3.77;;;17.80;69.10;;;;;;5016351;28;20236;-93
2022/10/07 09:19:51;;;;;;;12.93;3.40;;;18.00;68.90;;;;;;5029604;28;20205;-91
2022/10/07 09:22:41;;;;;;;13.27;3.87;;;18.20;68.80;;;;;;5019898;28;20227;-90
2022/10/07 09:25:19;;;;;;;9.03;2.90;;;18.40;68.50;;;;;;5023838;28;20211;-91
2022/10/07 09:27:53;;;;;;;13.63;3.47;;;18.50;68.10;;;;;;5019015;28;20219;-91
2022/10/07 09:30:24;;;;;;;9.73;3.03;;;18.60;68.00;;;;;;5016195;28;20214;-89
2022/10/07 09:33:00;;;;;;;15.80;4.40;;;18.80;68.20;;;;;;5017229;28;20218;-89
2022/10/07 09:35:39;;;;;;;10.67;3.10;;;18.90;67.90;;;;;;5015418;28;20212;-89
2022/10/07 09:38:44;;;;;;;17.47;3.77;;;19.10;67.60;;;;;;5017138;28;20307;-90
2022/10/07 09:41:19;;;;;;;7.70;2.77;;;19.30;67.20;;;;;;5016386;28;20209;-89
2022/10/07 09:44:02;;;;;;;11.20;2.90;;;19.50;66.90;;;;;;5017954;28;20290;-90
2022/10/07 09:49:41;;;;;;;9.10;2.73;;;19.80;66.10;;;;;;5100311;23;20221;-91
2022/10/07 09:55:32;;;;;;;10.13;3.07;;;20.20;64.70;;;;;;5011026;28;20240;-92
2022/10/07 10:03:41;;;;;;;11.47;3.07;;;20.80;63.60;;;;;;5008561;28;20295;-89
2022/10/07 10:06:13;;;;;;;12.67;3.43;;;20.90;63.60;;;;;;5012303;28;20212;-93
2022/10/07 10:08:43;;;;;;;8.30;2.90;;;21.00;62.50;;;;;;5012288;28;20263;-90
2022/10/07 10:11:27;;;;;;;9.30;2.83;;;21.20;62.30;;;;;;5014073;28;20236;-90
2022/10/07 10:14:22;;;;;;;11.10;3.17;;;21.40;61.50;;;;;;5015821;28;20208;-93
2022/10/07 10:16:51;;;;;;;13.97;3.90;;;21.50;61.30;;;;;;5013070;28;20261;-90
2022/10/07 10:19:35;;;;;;;14.77;4.47;;;21.70;61.90;;;;;;5008965;28;20201;-92
2022/10/07 10:22:02;;;;;;;9.43;3.23;;;21.80;60.00;;;;;;5008472;28;20217;-90
2022/10/07 10:27:26;;;;;;;10.33;2.83;;;22.00;59.60;;;;;;5016351;28;20212;-94
2022/10/07 10:29:57;;;;;;;6.80;2.53;;;22.10;59.50;;;;;;5018915;28;20205;-91
2022/10/07 10:33:05;;;;;;;10.73;3.00;;;22.20;59.50;;;;;;5013004;28;20624;-91
2022/10/07 10:35:36;;;;;;;15.00;4.53;;;22.30;58.60;;;;;;4994138;28;20229;-93
2022/10/07 10:38:22;;;;;;;13.37;3.53;;;22.40;60.40;;;;;;5021650;28;20233;-94
2022/10/07 10:44:41;;;;;;;9.37;3.00;;;22.70;59.30;;;;;;5020302;28;20941;-93
2022/10/07 10:47:18;;;;;;;9.10;2.97;;;22.90;58.20;;;;;;5020350;28;20215;-91
2022/10/07 10:53:28;;;;;;;9.93;3.27;;;23.00;57.40;;;;;;5008342;28;20575;-91
2022/10/07 10:56:16;;;;;;;10.40;2.93;;;23.10;57.30;;;;;;5008597;28;20284;-91
2022/10/07 10:59:29;;;;;;;12.43;3.50;;;23.10;57.80;;;;;;5019211;28;20259;-95
2022/10/07 11:02:08;;;;;;;8.17;3.07;;;23.20;57.40;;;;;;5010451;28;20347;-91
2022/10/07 11:04:45;;;;;;;8.33;2.77;;;23.30;57.50;;;;;;5012711;28;20241;-94
2022/10/07 11:07:22;;;;;;;5.77;2.37;;;23.40;57.00;;;;;;5022587;28;20219;-92
2022/10/07 11:09:59;;;;;;;10.13;3.70;;;23.50;56.70;;;;;;5022102;28;20298;-94
2022/10/07 11:12:31;;;;;;;8.70;3.40;;;23.60;57.10;;;;;;5005691;28;20269;-95
2022/10/07 11:15:09;;;;;;;8.57;3.37;;;23.70;57.10;;;;;;5001292;28;20233;-94
2022/10/07 11:17:41;;;;;;;5.83;2.20;;;23.80;56.30;;;;;;4999058;28;20210;-93
2022/10/07 11:20:26;;;;;;;11.63;2.80;;;23.80;56.80;;;;;;5001939;28;20244;-92
2022/10/07 11:23:00;;;;;;;8.50;2.50;;;23.90;56.50;;;;;;5001065;28;20264;-92
2022/10/07 11:26:09;;;;;;;8.90;3.03;;;24.00;56.40;;;;;;5007543;28;20201;-93
2022/10/07 11:28:41;;;;;;;7.73;2.50;;;24.00;55.80;;;;;;5020095;28;20560;-94
2022/10/07 11:31:20;;;;;;;7.43;2.43;;;24.10;56.30;;;;;;5019829;28;20205;-93
2022/10/07 11:34:01;;;;;;;9.43;2.60;;;24.10;56.00;;;;;;5020622;28;20205;-91
2022/10/07 11:36:45;;;;;;;4.20;1.80;;;24.20;55.70;;;;;;5021137;28;20205;-92
2022/10/07 11:39:12;;;;;;;4.70;1.80;;;24.20;55.10;;;;;;5022349;28;20229;-92
2022/10/07 11:42:42;;;;;;;7.57;2.00;;;24.20;55.80;;;;;;5018876;28;20206;-92
2022/10/07 11:45:21;;;;;;;6.23;2.27;;;24.20;54.30;;;;;;5019995;28;20205;-93
2022/10/07 11:47:54;;;;;;;11.93;2.47;;;24.10;54.50;;;;;;5018210;28;20225;-94
2022/10/07 11:50:30;;;;;;;7.73;2.50;;;24.10;54.60;;;;;;5019836;28;20272;-91
2022/10/07 11:56:03;;;;;;;5.77;2.37;;;24.00;54.90;;;;;;5013363;28;20267;-93
2022/10/07 11:58:59;;;;;;;8.70;2.63;;;24.00;55.10;;;;;;5019523;28;20260;-96
2022/10/07 12:01:50;;;;;;;6.13;1.83;;;24.00;54.10;;;;;;5022326;28;20209;-95
2022/10/07 12:04:46;;;;;;;7.73;2.43;;;24.00;54.40;;;;;;5015500;28;20217;-94
2022/10/07 12:07:56;;;;;;;7.03;1.90;;;24.10;54.50;;;;;;5016297;28;20274;-95
2022/10/07 12:10:34;;;;;;;11.20;2.50;;;24.10;54.40;;;;;;5016605;28;20202;-93
2022/10/07 12:19:36;;;;;;;10.70;4.03;;;24.30;53.50;;;;;;5027299;28;20236;-95
2022/10/07 12:22:18;;;;;;;6.07;1.97;;;24.30;54.30;;;;;;5027501;28;20198;-95
2022/10/07 12:25:30;;;;;;;8.43;2.20;;;24.30;54.00;;;;;;5018800;28;20810;-92
2022/10/07 12:28:22;;;;;;;6.70;2.50;;;24.40;53.30;;;;;;5019364;28;20194;-94
2022/10/07 12:31:45;;;;;;;6.03;2.17;;;24.50;53.30;;;;;;5037601;23;20261;-95
2022/10/07 12:38:05;;;;;;;6.67;2.43;;;24.50;53.60;;;;;;5005320;28;20210;-93
2022/10/07 12:40:37;;;;;;;9.77;3.03;;;24.60;53.80;;;;;;4943325;29;20342;-92
2022/10/07 12:43:24;;;;;;;6.60;2.47;;;24.70;53.30;;;;;;4943741;29;20201;-93
2022/10/07 12:46:06;;;;;;;15.43;3.50;;;24.70;52.70;;;;;;4989850;28;20228;-94
2022/10/07 12:48:46;;;;;;;11.63;3.93;;;24.70;52.70;;;;;;5004484;28;20273;-93
2022/10/07 12:51:29;;;;;;;9.33;3.57;;;24.70;52.30;;;;;;5013883;28;20201;-92
2022/10/07 12:54:00;;;;;;;7.83;2.30;;;24.70;52.20;;;;;;5015204;28;20225;-93
2022/10/07 12:56:35;;;;;;;7.73;2.70;;;24.70;52.70;;;;;;5022344;28;20252;-93
2022/10/07 13:06:14;;;;;;;4.53;1.87;;;24.60;52.40;;;;;;5005090;28;20237;-93
2022/10/07 13:09:32;;;;;;;11.70;3.97;;;24.60;52.40;;;;;;5004797;28;20207;-95
2022/10/07 13:15:40;;;;;;;10.17;2.07;;;24.60;52.00;;;;;;4994883;28;20202;-94
2022/10/07 13:21:06;;;;;;;4.50;1.50;;;24.70;52.30;;;;;;5430288;23;20261;-96
2022/10/07 13:23:54;;;;;;;9.00;2.70;;;24.70;52.10;;;;;;5003583;28;20202;-95
2022/10/07 13:26:23;;;;;;;8.90;2.77;;;24.70;51.60;;;;;;5007385;28;20317;-95
2022/10/07 13:32:03;;;;;;;6.37;2.60;;;24.70;51.70;;;;;;4994874;28;20206;-93
2022/10/07 13:34:32;;;;;;;10.23;2.90;;;24.70;51.70;;;;;;5002274;28;20202;-93
2022/10/07 13:37:39;;;;;;;4.57;1.50;;;24.80;52.30;;;;;;4996677;28;20276;-94
2022/10/07 13:40:39;;;;;;;7.33;2.27;;;24.80;52.00;;;;;;4998763;28;20213;-95
2022/10/07 13:43:09;;;;;;;5.83;2.27;;;24.70;51.30;;;;;;5109007;23;20233;-92
2022/10/07 13:45:43;;;;;;;4.30;1.57;;;24.80;51.70;;;;;;4996814;28;20213;-93
2022/10/07 13:48:21;;;;;;;7.10;2.37;;;24.70;51.50;;;;;;4982337;28;20217;-95
2022/10/07 13:50:54;;;;;;;11.40;3.10;;;24.70;51.30;;;;;;4993895;28;20205;-93
2022/10/07 13:53:54;;;;;;;11.17;2.80;;;24.70;51.30;;;;;;4996076;28;20647;-94
2022/10/07 13:56:26;;;;;;;6.57;2.10;;;24.70;51.30;;;;;;4991036;28;20222;-94
2022/10/07 13:59:11;;;;;;;7.03;2.83;;;24.70;51.30;;;;;;4991110;28;20249;-94
2022/10/07 14:01:47;;;;;;;8.07;2.90;;;24.70;51.10;;;;;;4995583;28;20206;-93
2022/10/07 14:04:27;;;;;;;5.50;2.10;;;24.60;50.90;;;;;;4996200;28;20206;-93
2022/10/07 14:06:59;;;;;;;13.07;4.37;;;24.50;50.70;;;;;;4990600;28;20202;-93
2022/10/07 14:09:49;;;;;;;8.70;2.70;;;24.50;51.10;;;;;;4996695;28;20281;-94
2022/10/07 14:13:02;;;;;;;6.77;2.10;;;24.40;50.90;;;;;;4996730;28;20245;-93
2022/10/07 14:18:18;;;;;;;8.17;2.63;;;24.20;51.30;;;;;;4991159;28;20226;-92
2022/10/07 14:20:53;;;;;;;9.57;2.77;;;24.20;51.30;;;;;;5008810;28;20216;-91
2022/10/07 14:23:27;;;;;;;6.60;2.67;;;24.10;51.30;;;;;;5003496;28;20197;-93
2022/10/07 14:26:01;;;;;;;5.00;2.10;;;24.00;51.40;;;;;;5010769;28;20206;-93
2022/10/07 14:28:31;;;;;;;6.07;1.90;;;23.90;51.60;;;;;;5000712;28;20212;-95
2022/10/07 14:37:08;;;;;;;5.80;1.93;;;23.80;51.40;;;;;;5004277;28;20240;-93
2022/10/07 14:39:42;;;;;;;6.37;2.33;;;23.80;51.20;;;;;;5000456;28;20593;-93
2022/10/07 14:42:12;;;;;;;10.40;3.60;;;23.80;51.30;;;;;;4988007;28;20241;-94
2022/10/07 14:53:21;;;;;;;9.60;3.60;;;23.40;51.30;;;;;;5018134;23;20240;-94
2022/10/07 14:55:50;;;;;;;8.70;2.90;;;23.30;51.50;;;;;;5011606;28;20240;-93
2022/10/07 14:58:21;;;;;;;8.00;3.20;;;23.20;51.70;;;;;;4994050;28;20699;-94
2022/10/07 15:00:48;;;;;;;5.57;2.03;;;23.10;51.50;;;;;;4994863;28;20206;-92
2022/10/07 15:03:24;;;;;;;9.77;3.40;;;23.10;51.50;;;;;;4994234;28;20297;-92
2022/10/07 15:05:53;;;;;;;8.77;2.70;;;23.00;51.60;;;;;;5007876;28;20286;-93
2022/10/07 15:09:12;;;;;;;8.33;2.83;;;22.90;51.50;;;;;;5003307;28;20216;-94
2022/10/07 15:11:40;;;;;;;5.73;2.17;;;22.90;51.60;;;;;;5010900;23;20238;-95
2022/10/07 15:14:10;;;;;;;20.03;6.93;;;22.80;52.00;;;;;;5004603;28;20643;-89
2022/10/07 15:16:41;;;;;;;9.63;3.13;;;22.70;52.00;;;;;;5003420;28;20301;-94
2022/10/07 15:19:09;;;;;;;8.43;3.20;;;22.70;52.00;;;;;;5000148;28;20242;-94
2022/10/07 15:24:19;;;;;;;7.00;2.63;;;22.60;52.10;;;;;;4971156;28;20215;-93
2022/10/07 15:29:52;;;;;;;10.77;3.77;;;22.50;52.00;;;;;;4990857;28;20287;-93
2022/10/07 15:32:19;;;;;;;9.30;3.20;;;22.50;52.10;;;;;;4987130;28;20206;-92
2022/10/07 15:34:47;;;;;;;6.80;2.60;;;22.50;52.00;;;;;;4989140;28;20300;-92
2022/10/07 15:37:35;;;;;;;9.37;2.83;;;22.40;52.00;;;;;;5006155;28;20201;-93
2022/10/07 15:40:05;;;;;;;8.23;2.47;;;22.40;52.20;;;;;;5006740;28;21079;-89